sensor_id;sensor_type;location;lat;lon;timestamp;temperature;humidity
34460;DHT22;20704;51.260;22.558;2024-02-21T00:01:17;6.30;99.90
34460;DHT22;20704;51.260;22.558;2024-02-21T00:03:21;6.30;99.90
34460;DHT22;20704;51.260;22.558;2024-02-21T00:05:24;6.30;99.90
34460;DHT22;20704;51.260;22.558;2024-02-21T00:07:26;6.30;99.90
34460;DHT22;20704;51.260;22.558;2024-02-21T00:09:31;6.30;99.90
34460;DHT22;20704;51.260;22.558;2024-02-21T00:11:34;6.30;99.90
34460;DHT22;20704;51.260;22.558;2024-02-21T00:13:36;6.30;99.90
34460;DHT22;20704;51.260;22.558;2024-02-21T00:15:39;6.30;99.90
34460;DHT22;20704;51.260;22.558;2024-02-21T00:17:45;6.30;99.90
34460;DHT22;20704;51.260;22.558;2024-02-21T00:19:48;6.30;99.90
34460;DHT22;20704;51.260;22.558;2024-02-21T00:21:50;6.20;99.90
34460;DHT22;20704;51.260;22.558;2024-02-21T00:23:53;6.20;99.90
34460;DHT22;20704;51.260;22.558;2024-02-21T00:25:55;6.20;99.90
34460;DHT22;20704;51.260;22.558;2024-02-21T00:27:58;6.20;99.90
34460;DHT22;20704;51.260;22.558;2024-02-21T00:30:00;6.30;99.90
34460;DHT22;20704;51.260;22.558;2024-02-21T00:32:03;6.30;99.90
34460;DHT22;20704;51.260;22.558;2024-02-21T00:34:06;6.20;99.90
34460;DHT22;20704;51.260;22.558;2024-02-21T00:36:08;6.20;99.90
34460;DHT22;20704;51.260;22.558;2024-02-21T00:38:10;6.20;99.90
34460;DHT22;20704;51.260;22.558;2024-02-21T00:40:13;6.20;99.90
34460;DHT22;20704;51.260;22.558;2024-02-21T00:42:18;6.20;99.90
34460;DHT22;20704;51.260;22.558;2024-02-21T00:44:20;6.20;99.90
34460;DHT22;20704;51.260;22.558;2024-02-21T00:46:23;6.20;99.90
34460;DHT22;20704;51.260;22.558;2024-02-21T00:48:25;6.20;99.90
34460;DHT22;20704;51.260;22.558;2024-02-21T00:50:28;6.20;99.90
34460;DHT22;20704;51.260;22.558;2024-02-21T00:52:30;6.50;99.90
34460;DHT22;20704;51.260;22.558;2024-02-21T00:54:33;6.20;90.50
34460;DHT22;20704;51.260;22.558;2024-02-21T00:56:51;6.10;1.00
34460;DHT22;20704;51.260;22.558;2024-02-21T00:58:53;6.20;1.00
34460;DHT22;20704;51.260;22.558;2024-02-21T01:00:56;6.10;1.00
34460;DHT22;20704;51.260;22.558;2024-02-21T01:02:58;6.10;1.00
34460;DHT22;20704;51.260;22.558;2024-02-21T01:05:01;6.10;1.00
34460;DHT22;20704;51.260;22.558;2024-02-21T01:07:04;6.10;1.00
34460;DHT22;20704;51.260;22.558;2024-02-21T01:09:06;6.10;1.00
34460;DHT22;20704;51.260;22.558;2024-02-21T01:11:09;6.10;99.90
34460;DHT22;20704;51.260;22.558;2024-02-21T01:13:11;6.00;99.90
34460;DHT22;20704;51.260;22.558;2024-02-21T01:15:14;6.00;99.90
34460;DHT22;20704;51.260;22.558;2024-02-21T01:17:16;6.00;99.90
34460;DHT22;20704;51.260;22.558;2024-02-21T01:19:19;6.00;99.90
34460;DHT22;20704;51.260;22.558;2024-02-21T01:21:21;6.00;99.90
34460;DHT22;20704;51.260;22.558;2024-02-21T01:23:23;5.90;99.90
34460;DHT22;20704;51.260;22.558;2024-02-21T01:25:26;6.00;13.90
34460;DHT22;20704;51.260;22.558;2024-02-21T01:27:28;5.90;11.10
34460;DHT22;20704;51.260;22.558;2024-02-21T01:29:31;5.90;1.00
34460;DHT22;20704;51.260;22.558;2024-02-21T01:31:33;5.90;4.00
34460;DHT22;20704;51.260;22.558;2024-02-21T01:33:35;5.80;45.90
34460;DHT22;20704;51.260;22.558;2024-02-21T01:35:38;5.80;97.30
34460;DHT22;20704;51.260;22.558;2024-02-21T01:37:40;5.80;99.90
34460;DHT22;20704;51.260;22.558;2024-02-21T01:39:43;5.90;99.90
34460;DHT22;20704;51.260;22.558;2024-02-21T01:41:45;5.90;99.90
34460;DHT22;20704;51.260;22.558;2024-02-21T01:43:48;5.90;2.70
34460;DHT22;20704;51.260;22.558;2024-02-21T01:45:52;5.80;1.00
34460;DHT22;20704;51.260;22.558;2024-02-21T01:47:55;5.80;1.00
34460;DHT22;20704;51.260;22.558;2024-02-21T01:49:58;5.80;99.90
34460;DHT22;20704;51.260;22.558;2024-02-21T01:52:01;5.80;72.30
34460;DHT22;20704;51.260;22.558;2024-02-21T01:54:05;5.90;30.00
34460;DHT22;20704;51.260;22.558;2024-02-21T01:56:08;5.70;1.00
34460;DHT22;20704;51.260;22.558;2024-02-21T01:58:13;5.70;99.90
34460;DHT22;20704;51.260;22.558;2024-02-21T02:00:16;5.70;99.90
34460;DHT22;20704;51.260;22.558;2024-02-21T02:02:18;5.70;99.90
34460;DHT22;20704;51.260;22.558;2024-02-21T02:04:21;5.60;66.60
34460;DHT22;20704;51.260;22.558;2024-02-21T02:06:24;5.60;99.90
34460;DHT22;20704;51.260;22.558;2024-02-21T02:08:27;5.60;62.80
34460;DHT22;20704;51.260;22.558;2024-02-21T02:10:29;5.70;1.00
34460;DHT22;20704;51.260;22.558;2024-02-21T02:12:32;5.50;1.00
34460;DHT22;20704;51.260;22.558;2024-02-21T02:14:34;5.50;1.00
34460;DHT22;20704;51.260;22.558;2024-02-21T02:16:37;5.70;1.00
34460;DHT22;20704;51.260;22.558;2024-02-21T02:18:39;5.50;99.90
34460;DHT22;20704;51.260;22.558;2024-02-21T02:20:42;5.50;99.90
34460;DHT22;20704;51.260;22.558;2024-02-21T02:22:47;5.50;1.00
34460;DHT22;20704;51.260;22.558;2024-02-21T02:24:51;5.50;1.00
34460;DHT22;20704;51.260;22.558;2024-02-21T02:26:53;5.50;1.00
34460;DHT22;20704;51.260;22.558;2024-02-21T02:30:58;5.50;99.90
34460;DHT22;20704;51.260;22.558;2024-02-21T02:33:01;5.50;99.10
34460;DHT22;20704;51.260;22.558;2024-02-21T02:35:04;5.70;99.90
34460;DHT22;20704;51.260;22.558;2024-02-21T02:37:06;5.50;99.90
34460;DHT22;20704;51.260;22.558;2024-02-21T02:39:08;5.50;99.90
34460;DHT22;20704;51.260;22.558;2024-02-21T02:41:11;5.50;99.90
34460;DHT22;20704;51.260;22.558;2024-02-21T02:43:13;5.50;1.00
34460;DHT22;20704;51.260;22.558;2024-02-21T02:45:17;5.50;3.70
34460;DHT22;20704;51.260;22.558;2024-02-21T02:47:19;5.50;95.40
34460;DHT22;20704;51.260;22.558;2024-02-21T02:49:22;5.60;99.90
34460;DHT22;20704;51.260;22.558;2024-02-21T02:51:24;5.50;99.90
34460;DHT22;20704;51.260;22.558;2024-02-21T02:53:27;5.60;99.90
34460;DHT22;20704;51.260;22.558;2024-02-21T02:57:32;5.60;3.00
34460;DHT22;20704;51.260;22.558;2024-02-21T02:59:35;5.60;1.00
34460;DHT22;20704;51.260;22.558;2024-02-21T03:01:37;5.50;1.00
34460;DHT22;20704;51.260;22.558;2024-02-21T03:03:40;5.50;3.20
34460;DHT22;20704;51.260;22.558;2024-02-21T03:05:43;5.50;1.00
34460;DHT22;20704;51.260;22.558;2024-02-21T03:07:45;5.50;1.00
34460;DHT22;20704;51.260;22.558;2024-02-21T03:09:48;5.50;1.00
34460;DHT22;20704;51.260;22.558;2024-02-21T03:11:51;5.50;1.00
34460;DHT22;20704;51.260;22.558;2024-02-21T03:13:55;5.50;99.90
34460;DHT22;20704;51.260;22.558;2024-02-21T03:15:59;5.50;99.90
34460;DHT22;20704;51.260;22.558;2024-02-21T03:18:01;5.40;94.30
34460;DHT22;20704;51.260;22.558;2024-02-21T03:20:04;5.50;99.90
34460;DHT22;20704;51.260;22.558;2024-02-21T03:24:18;5.50;99.90
34460;DHT22;20704;51.260;22.558;2024-02-21T03:26:20;5.50;99.90
34460;DHT22;20704;51.260;22.558;2024-02-21T03:28:23;5.50;99.90
34460;DHT22;20704;51.260;22.558;2024-02-21T03:30:25;5.40;99.90
34460;DHT22;20704;51.260;22.558;2024-02-21T03:32:27;5.50;99.90
34460;DHT22;20704;51.260;22.558;2024-02-21T03:34:31;5.40;99.90
34460;DHT22;20704;51.260;22.558;2024-02-21T03:36:33;5.30;18.50
34460;DHT22;20704;51.260;22.558;2024-02-21T03:38:36;5.30;1.00
34460;DHT22;20704;51.260;22.558;2024-02-21T03:40:38;5.40;1.00
34460;DHT22;20704;51.260;22.558;2024-02-21T03:42:41;5.40;70.10
34460;DHT22;20704;51.260;22.558;2024-02-21T03:44:43;5.40;99.90
34460;DHT22;20704;51.260;22.558;2024-02-21T03:48:48;5.40;93.40
34460;DHT22;20704;51.260;22.558;2024-02-21T03:50:51;5.10;99.90
34460;DHT22;20704;51.260;22.558;2024-02-21T03:52:53;5.30;99.90
34460;DHT22;20704;51.260;22.558;2024-02-21T03:54:56;5.30;99.90
34460;DHT22;20704;51.260;22.558;2024-02-21T03:56:58;5.30;99.90
34460;DHT22;20704;51.260;22.558;2024-02-21T03:59:00;5.30;99.90
34460;DHT22;20704;51.260;22.558;2024-02-21T04:01:03;5.20;99.90
34460;DHT22;20704;51.260;22.558;2024-02-21T04:05:09;5.20;1.00
34460;DHT22;20704;51.260;22.558;2024-02-21T04:07:14;5.10;53.60
34460;DHT22;20704;51.260;22.558;2024-02-21T04:09:17;5.10;58.20
34460;DHT22;20704;51.260;22.558;2024-02-21T04:11:19;5.10;99.90
34460;DHT22;20704;51.260;22.558;2024-02-21T04:13:22;5.10;99.90
34460;DHT22;20704;51.260;22.558;2024-02-21T04:15:25;5.20;1.00
34460;DHT22;20704;51.260;22.558;2024-02-21T04:17:27;5.20;99.90
34460;DHT22;20704;51.260;22.558;2024-02-21T04:19:30;5.20;99.90
34460;DHT22;20704;51.260;22.558;2024-02-21T04:21:34;5.20;99.90
34460;DHT22;20704;51.260;22.558;2024-02-21T04:23:37;5.10;99.90
34460;DHT22;20704;51.260;22.558;2024-02-21T04:25:40;5.10;99.90
34460;DHT22;20704;51.260;22.558;2024-02-21T04:27:42;5.10;99.90
34460;DHT22;20704;51.260;22.558;2024-02-21T04:29:44;5.10;99.90
34460;DHT22;20704;51.260;22.558;2024-02-21T04:31:47;5.10;99.90
34460;DHT22;20704;51.260;22.558;2024-02-21T04:33:49;5.00;99.90
34460;DHT22;20704;51.260;22.558;2024-02-21T04:35:52;5.00;99.90
34460;DHT22;20704;51.260;22.558;2024-02-21T04:37:56;5.00;1.00
34460;DHT22;20704;51.260;22.558;2024-02-21T04:42:01;4.90;1.00
34460;DHT22;20704;51.260;22.558;2024-02-21T04:44:04;5.00;99.90
34460;DHT22;20704;51.260;22.558;2024-02-21T04:46:07;4.90;1.00
34460;DHT22;20704;51.260;22.558;2024-02-21T04:48:09;4.90;99.90
34460;DHT22;20704;51.260;22.558;2024-02-21T04:50:11;4.80;99.90
34460;DHT22;20704;51.260;22.558;2024-02-21T04:52:15;4.90;99.90
34460;DHT22;20704;51.260;22.558;2024-02-21T04:54:17;4.80;99.90
34460;DHT22;20704;51.260;22.558;2024-02-21T04:56:20;4.90;1.00
34460;DHT22;20704;51.260;22.558;2024-02-21T04:58:22;4.90;1.00
34460;DHT22;20704;51.260;22.558;2024-02-21T05:00:25;4.90;1.00
34460;DHT22;20704;51.260;22.558;2024-02-21T05:02:27;4.80;87.70
34460;DHT22;20704;51.260;22.558;2024-02-21T05:04:30;4.80;1.00
34460;DHT22;20704;51.260;22.558;2024-02-21T05:06:32;4.90;26.50
34460;DHT22;20704;51.260;22.558;2024-02-21T05:08:40;4.90;40.10
34460;DHT22;20704;51.260;22.558;2024-02-21T05:10:42;4.90;35.50
34460;DHT22;20704;51.260;22.558;2024-02-21T05:12:45;4.90;46.50
34460;DHT22;20704;51.260;22.558;2024-02-21T05:14:47;4.90;99.90
34460;DHT22;20704;51.260;22.558;2024-02-21T05:16:50;4.90;99.90
34460;DHT22;20704;51.260;22.558;2024-02-21T05:18:52;5.00;99.90
34460;DHT22;20704;51.260;22.558;2024-02-21T05:20:55;4.90;1.00
34460;DHT22;20704;51.260;22.558;2024-02-21T05:22:57;5.00;1.00
34460;DHT22;20704;51.260;22.558;2024-02-21T05:24:59;5.00;1.00
34460;DHT22;20704;51.260;22.558;2024-02-21T05:27:02;5.00;1.00
34460;DHT22;20704;51.260;22.558;2024-02-21T05:29:04;5.10;1.00
34460;DHT22;20704;51.260;22.558;2024-02-21T05:31:06;5.00;1.00
34460;DHT22;20704;51.260;22.558;2024-02-21T05:33:09;5.00;1.00
34460;DHT22;20704;51.260;22.558;2024-02-21T05:37:14;5.10;99.90
34460;DHT22;20704;51.260;22.558;2024-02-21T05:39:18;5.10;99.90
34460;DHT22;20704;51.260;22.558;2024-02-21T05:41:20;5.10;99.90
34460;DHT22;20704;51.260;22.558;2024-02-21T05:43:22;5.10;93.10
34460;DHT22;20704;51.260;22.558;2024-02-21T05:45:25;5.10;9.90
34460;DHT22;20704;51.260;22.558;2024-02-21T05:47:33;5.20;7.00
34460;DHT22;20704;51.260;22.558;2024-02-21T05:49:39;5.20;1.00
34460;DHT22;20704;51.260;22.558;2024-02-21T05:51:44;5.20;41.70
34460;DHT22;20704;51.260;22.558;2024-02-21T05:53:47;5.10;1.00
34460;DHT22;20704;51.260;22.558;2024-02-21T05:55:49;5.20;1.00
34460;DHT22;20704;51.260;22.558;2024-02-21T05:57:54;5.20;1.00
34460;DHT22;20704;51.260;22.558;2024-02-21T05:59:57;5.10;1.00
34460;DHT22;20704;51.260;22.558;2024-02-21T06:01:59;5.20;1.00
34460;DHT22;20704;51.260;22.558;2024-02-21T06:04:02;5.20;1.00
34460;DHT22;20704;51.260;22.558;2024-02-21T06:06:05;5.20;1.00
34460;DHT22;20704;51.260;22.558;2024-02-21T06:08:08;5.20;1.00
34460;DHT22;20704;51.260;22.558;2024-02-21T06:10:11;5.20;1.00
34460;DHT22;20704;51.260;22.558;2024-02-21T06:12:13;5.20;1.00
34460;DHT22;20704;51.260;22.558;2024-02-21T06:14:16;5.30;1.00
34460;DHT22;20704;51.260;22.558;2024-02-21T06:18:21;5.30;99.90
34460;DHT22;20704;51.260;22.558;2024-02-21T06:20:23;5.30;99.90
34460;DHT22;20704;51.260;22.558;2024-02-21T06:22:26;5.30;99.90
34460;DHT22;20704;51.260;22.558;2024-02-21T06:24:28;5.40;99.90
34460;DHT22;20704;51.260;22.558;2024-02-21T06:26:31;5.30;99.90
34460;DHT22;20704;51.260;22.558;2024-02-21T06:28:33;5.30;99.90
34460;DHT22;20704;51.260;22.558;2024-02-21T06:30:36;5.40;74.30
34460;DHT22;20704;51.260;22.558;2024-02-21T06:32:38;5.40;1.00
34460;DHT22;20704;51.260;22.558;2024-02-21T06:34:40;5.60;45.80
34460;DHT22;20704;51.260;22.558;2024-02-21T06:36:44;5.70;99.90
34460;DHT22;20704;51.260;22.558;2024-02-21T06:38:47;5.70;99.90
34460;DHT22;20704;51.260;22.558;2024-02-21T06:40:49;5.70;88.60
34460;DHT22;20704;51.260;22.558;2024-02-21T06:42:54;5.80;99.90
34460;DHT22;20704;51.260;22.558;2024-02-21T06:44:56;5.80;98.50
34460;DHT22;20704;51.260;22.558;2024-02-21T06:46:59;5.80;1.00
34460;DHT22;20704;51.260;22.558;2024-02-21T06:49:02;5.90;99.90
34460;DHT22;20704;51.260;22.558;2024-02-21T06:51:06;5.90;99.90
34460;DHT22;20704;51.260;22.558;2024-02-21T06:53:08;5.80;1.00
34460;DHT22;20704;51.260;22.558;2024-02-21T06:55:11;5.80;99.90
34460;DHT22;20704;51.260;22.558;2024-02-21T06:57:13;5.90;99.90
34460;DHT22;20704;51.260;22.558;2024-02-21T06:59:17;5.90;99.90
34460;DHT22;20704;51.260;22.558;2024-02-21T07:01:20;5.90;98.80
34460;DHT22;20704;51.260;22.558;2024-02-21T07:03:25;5.90;25.30
34460;DHT22;20704;51.260;22.558;2024-02-21T07:05:28;5.90;99.90
34460;DHT22;20704;51.260;22.558;2024-02-21T07:07:32;5.90;99.90
34460;DHT22;20704;51.260;22.558;2024-02-21T07:09:34;5.80;1.00
34460;DHT22;20704;51.260;22.558;2024-02-21T07:11:36;5.90;99.90
34460;DHT22;20704;51.260;22.558;2024-02-21T07:13:39;5.80;99.90
34460;DHT22;20704;51.260;22.558;2024-02-21T07:15:41;5.80;49.30
34460;DHT22;20704;51.260;22.558;2024-02-21T07:17:44;5.80;99.90
34460;DHT22;20704;51.260;22.558;2024-02-21T07:19:46;5.80;1.00
34460;DHT22;20704;51.260;22.558;2024-02-21T07:21:48;5.90;1.00
34460;DHT22;20704;51.260;22.558;2024-02-21T07:23:51;5.90;1.00
34460;DHT22;20704;51.260;22.558;2024-02-21T07:25:53;5.90;1.00
34460;DHT22;20704;51.260;22.558;2024-02-21T07:27:56;6.00;1.00
34460;DHT22;20704;51.260;22.558;2024-02-21T07:29:58;6.00;99.90
34460;DHT22;20704;51.260;22.558;2024-02-21T07:32:01;6.10;99.90
34460;DHT22;20704;51.260;22.558;2024-02-21T07:34:04;6.10;99.90
34460;DHT22;20704;51.260;22.558;2024-02-21T07:36:07;6.10;99.90
34460;DHT22;20704;51.260;22.558;2024-02-21T07:38:10;6.10;99.90
34460;DHT22;20704;51.260;22.558;2024-02-21T07:40:16;6.30;99.90
34460;DHT22;20704;51.260;22.558;2024-02-21T07:42:18;6.20;99.90
34460;DHT22;20704;51.260;22.558;2024-02-21T07:44:21;6.30;99.90
34460;DHT22;20704;51.260;22.558;2024-02-21T07:46:23;6.30;99.90
34460;DHT22;20704;51.260;22.558;2024-02-21T07:48:26;6.40;92.60
34460;DHT22;20704;51.260;22.558;2024-02-21T07:50:29;6.40;91.10
34460;DHT22;20704;51.260;22.558;2024-02-21T07:52:31;6.40;32.00
34460;DHT22;20704;51.260;22.558;2024-02-21T07:54:34;6.50;99.90
34460;DHT22;20704;51.260;22.558;2024-02-21T07:56:36;6.50;99.90
34460;DHT22;20704;51.260;22.558;2024-02-21T07:58:39;6.40;99.90
34460;DHT22;20704;51.260;22.558;2024-02-21T08:00:42;6.50;91.90
34460;DHT22;20704;51.260;22.558;2024-02-21T08:02:44;6.50;1.00
34460;DHT22;20704;51.260;22.558;2024-02-21T08:06:55;6.50;1.00
34460;DHT22;20704;51.260;22.558;2024-02-21T08:08:58;6.60;37.80
34460;DHT22;20704;51.260;22.558;2024-02-21T08:11:02;6.60;1.00
34460;DHT22;20704;51.260;22.558;2024-02-21T08:13:05;6.60;1.00
34460;DHT22;20704;51.260;22.558;2024-02-21T08:15:08;6.60;1.00
34460;DHT22;20704;51.260;22.558;2024-02-21T08:17:13;6.70;43.00
34460;DHT22;20704;51.260;22.558;2024-02-21T08:19:15;6.80;58.00
34460;DHT22;20704;51.260;22.558;2024-02-21T08:21:18;7.00;99.90
34460;DHT22;20704;51.260;22.558;2024-02-21T08:23:23;7.10;99.90
34460;DHT22;20704;51.260;22.558;2024-02-21T08:25:25;7.20;1.00
34460;DHT22;20704;51.260;22.558;2024-02-21T08:27:28;7.20;99.90
34460;DHT22;20704;51.260;22.558;2024-02-21T08:29:30;7.30;99.90
34460;DHT22;20704;51.260;22.558;2024-02-21T08:31:33;7.40;63.70
34460;DHT22;20704;51.260;22.558;2024-02-21T08:33:36;7.40;99.90
34460;DHT22;20704;51.260;22.558;2024-02-21T08:37:42;7.50;99.90
34460;DHT22;20704;51.260;22.558;2024-02-21T08:39:45;7.40;1.00
34460;DHT22;20704;51.260;22.558;2024-02-21T08:41:49;7.50;16.40
34460;DHT22;20704;51.260;22.558;2024-02-21T08:43:58;7.70;1.00
34460;DHT22;20704;51.260;22.558;2024-02-21T08:46:01;8.70;1.00
34460;DHT22;20704;51.260;22.558;2024-02-21T08:48:04;8.80;54.70
34460;DHT22;20704;51.260;22.558;2024-02-21T08:50:08;9.00;1.00
34460;DHT22;20704;51.260;22.558;2024-02-21T08:52:27;9.10;99.90
34460;DHT22;20704;51.260;22.558;2024-02-21T08:54:30;9.00;99.90
34460;DHT22;20704;51.260;22.558;2024-02-21T08:56:32;9.00;99.90
34460;DHT22;20704;51.260;22.558;2024-02-21T08:58:36;8.90;99.90
34460;DHT22;20704;51.260;22.558;2024-02-21T09:00:41;8.80;99.90
34460;DHT22;20704;51.260;22.558;2024-02-21T09:02:44;8.80;99.90
34460;DHT22;20704;51.260;22.558;2024-02-21T09:04:46;8.70;99.90
34460;DHT22;20704;51.260;22.558;2024-02-21T09:06:49;8.80;99.90
34460;DHT22;20704;51.260;22.558;2024-02-21T09:08:51;8.80;99.90
34460;DHT22;20704;51.260;22.558;2024-02-21T09:10:54;8.10;99.90
34460;DHT22;20704;51.260;22.558;2024-02-21T09:12:56;8.70;99.90
34460;DHT22;20704;51.260;22.558;2024-02-21T09:14:58;8.60;99.90
34460;DHT22;20704;51.260;22.558;2024-02-21T09:17:01;8.60;99.90
34460;DHT22;20704;51.260;22.558;2024-02-21T09:19:04;8.70;99.90
34460;DHT22;20704;51.260;22.558;2024-02-21T09:21:06;8.50;99.90
34460;DHT22;20704;51.260;22.558;2024-02-21T09:23:09;8.40;99.90
34460;DHT22;20704;51.260;22.558;2024-02-21T09:25:12;8.30;99.90
34460;DHT22;20704;51.260;22.558;2024-02-21T09:27:14;8.30;99.90
34460;DHT22;20704;51.260;22.558;2024-02-21T09:29:16;8.30;99.90
34460;DHT22;20704;51.260;22.558;2024-02-21T09:31:19;8.30;99.90
34460;DHT22;20704;51.260;22.558;2024-02-21T09:33:22;8.30;99.90
34460;DHT22;20704;51.260;22.558;2024-02-21T09:35:33;8.30;99.90
34460;DHT22;20704;51.260;22.558;2024-02-21T09:37:36;8.50;99.90
34460;DHT22;20704;51.260;22.558;2024-02-21T09:39:39;8.40;99.90
34460;DHT22;20704;51.260;22.558;2024-02-21T09:41:45;8.30;99.90
34460;DHT22;20704;51.260;22.558;2024-02-21T09:43:50;8.40;99.90
34460;DHT22;20704;51.260;22.558;2024-02-21T09:45:55;8.30;99.90
34460;DHT22;20704;51.260;22.558;2024-02-21T09:50:40;8.20;99.90
34460;DHT22;20704;51.260;22.558;2024-02-21T09:52:46;8.00;99.90
34460;DHT22;20704;51.260;22.558;2024-02-21T09:54:48;8.00;99.90
34460;DHT22;20704;51.260;22.558;2024-02-21T09:56:51;8.10;99.90
34460;DHT22;20704;51.260;22.558;2024-02-21T09:58:54;8.10;99.90
34460;DHT22;20704;51.260;22.558;2024-02-21T10:00:57;8.10;99.90
34460;DHT22;20704;51.260;22.558;2024-02-21T10:03:00;8.20;99.90
34460;DHT22;20704;51.260;22.558;2024-02-21T10:05:03;8.20;99.90
34460;DHT22;20704;51.260;22.558;2024-02-21T10:07:07;8.20;99.90
34460;DHT22;20704;51.260;22.558;2024-02-21T10:09:26;8.20;99.90
34460;DHT22;20704;51.260;22.558;2024-02-21T10:11:30;8.20;99.90
34460;DHT22;20704;51.260;22.558;2024-02-21T10:13:33;8.10;99.90
34460;DHT22;20704;51.260;22.558;2024-02-21T10:17:38;8.20;99.90
34460;DHT22;20704;51.260;22.558;2024-02-21T10:19:42;8.20;99.90
34460;DHT22;20704;51.260;22.558;2024-02-21T10:21:59;8.30;99.90
34460;DHT22;20704;51.260;22.558;2024-02-21T10:24:01;8.30;99.90
34460;DHT22;20704;51.260;22.558;2024-02-21T10:26:07;8.40;99.90
34460;DHT22;20704;51.260;22.558;2024-02-21T10:28:12;8.40;99.90
34460;DHT22;20704;51.260;22.558;2024-02-21T10:30:15;8.40;99.90
34460;DHT22;20704;51.260;22.558;2024-02-21T10:32:17;8.40;99.90
34460;DHT22;20704;51.260;22.558;2024-02-21T10:34:20;8.40;99.90
34460;DHT22;20704;51.260;22.558;2024-02-21T10:36:23;8.40;99.90
34460;DHT22;20704;51.260;22.558;2024-02-21T10:38:29;8.40;99.90
34460;DHT22;20704;51.260;22.558;2024-02-21T10:40:31;8.40;99.90
34460;DHT22;20704;51.260;22.558;2024-02-21T10:42:36;8.20;99.90
34460;DHT22;20704;51.260;22.558;2024-02-21T10:44:40;8.20;99.90
34460;DHT22;20704;51.260;22.558;2024-02-21T10:46:44;8.20;99.90
34460;DHT22;20704;51.260;22.558;2024-02-21T10:48:47;8.20;99.90
34460;DHT22;20704;51.260;22.558;2024-02-21T10:51:04;8.10;99.90
34460;DHT22;20704;51.260;22.558;2024-02-21T10:55:45;8.10;99.90
34460;DHT22;20704;51.260;22.558;2024-02-21T10:57:51;8.10;99.90
34460;DHT22;20704;51.260;22.558;2024-02-21T10:59:55;8.20;99.90
34460;DHT22;20704;51.260;22.558;2024-02-21T11:02:02;8.20;99.90
34460;DHT22;20704;51.260;22.558;2024-02-21T11:04:10;8.20;99.90
34460;DHT22;20704;51.260;22.558;2024-02-21T11:06:15;8.30;99.90
34460;DHT22;20704;51.260;22.558;2024-02-21T11:08:18;8.40;99.90
34460;DHT22;20704;51.260;22.558;2024-02-21T11:10:23;8.40;99.90
34460;DHT22;20704;51.260;22.558;2024-02-21T11:12:26;8.40;99.90
34460;DHT22;20704;51.260;22.558;2024-02-21T11:14:29;8.50;99.90
34460;DHT22;20704;51.260;22.558;2024-02-21T11:16:40;8.60;99.90
34460;DHT22;20704;51.260;22.558;2024-02-21T11:18:43;8.70;99.90
34460;DHT22;20704;51.260;22.558;2024-02-21T11:20:50;8.70;99.90
34460;DHT22;20704;51.260;22.558;2024-02-21T11:22:55;8.90;99.90
34460;DHT22;20704;51.260;22.558;2024-02-21T11:25:07;9.00;99.90
34460;DHT22;20704;51.260;22.558;2024-02-21T11:27:21;9.10;99.90
34460;DHT22;20704;51.260;22.558;2024-02-21T11:29:27;9.10;99.90
34460;DHT22;20704;51.260;22.558;2024-02-21T11:31:43;9.20;96.00
34460;DHT22;20704;51.260;22.558;2024-02-21T11:35:51;9.30;58.60
34460;DHT22;20704;51.260;22.558;2024-02-21T11:37:55;9.20;99.90
34460;DHT22;20704;51.260;22.558;2024-02-21T11:39:57;9.30;22.50
34460;DHT22;20704;51.260;22.558;2024-02-21T11:42:06;9.40;18.80
34460;DHT22;20704;51.260;22.558;2024-02-21T11:44:12;9.40;4.80
34460;DHT22;20704;51.260;22.558;2024-02-21T11:46:14;9.50;1.00
34460;DHT22;20704;51.260;22.558;2024-02-21T11:48:16;9.50;1.00
34460;DHT22;20704;51.260;22.558;2024-02-21T11:50:19;9.50;1.00
34460;DHT22;20704;51.260;22.558;2024-02-21T11:52:24;9.70;1.00
34460;DHT22;20704;51.260;22.558;2024-02-21T11:54:31;9.60;1.00
34460;DHT22;20704;51.260;22.558;2024-02-21T11:56:35;9.60;1.00
34460;DHT22;20704;51.260;22.558;2024-02-21T11:58:37;9.60;1.00
34460;DHT22;20704;51.260;22.558;2024-02-21T12:00:41;9.50;1.00
34460;DHT22;20704;51.260;22.558;2024-02-21T12:02:44;9.60;1.00
34460;DHT22;20704;51.260;22.558;2024-02-21T12:04:48;9.50;1.00
34460;DHT22;20704;51.260;22.558;2024-02-21T12:06:53;9.60;1.00
34460;DHT22;20704;51.260;22.558;2024-02-21T12:08:58;9.60;1.00
34460;DHT22;20704;51.260;22.558;2024-02-21T12:11:00;9.50;1.00
34460;DHT22;20704;51.260;22.558;2024-02-21T12:13:07;9.50;1.00
34460;DHT22;20704;51.260;22.558;2024-02-21T12:15:10;9.60;1.00
34460;DHT22;20704;51.260;22.558;2024-02-21T12:17:13;9.70;1.00
34460;DHT22;20704;51.260;22.558;2024-02-21T12:19:15;9.70;1.00
34460;DHT22;20704;51.260;22.558;2024-02-21T12:21:19;9.90;1.00
34460;DHT22;20704;51.260;22.558;2024-02-21T12:23:21;10.00;1.00
34460;DHT22;20704;51.260;22.558;2024-02-21T12:25:23;10.00;1.00
34460;DHT22;20704;51.260;22.558;2024-02-21T12:27:28;10.00;1.00
34460;DHT22;20704;51.260;22.558;2024-02-21T12:29:31;10.10;1.00
34460;DHT22;20704;51.260;22.558;2024-02-21T12:31:33;10.10;1.00
34460;DHT22;20704;51.260;22.558;2024-02-21T12:33:35;10.00;1.00
34460;DHT22;20704;51.260;22.558;2024-02-21T12:35:38;9.90;1.00
34460;DHT22;20704;51.260;22.558;2024-02-21T12:37:40;9.70;1.00
34460;DHT22;20704;51.260;22.558;2024-02-21T12:39:43;9.60;1.00
34460;DHT22;20704;51.260;22.558;2024-02-21T12:41:46;9.50;1.00
34460;DHT22;20704;51.260;22.558;2024-02-21T12:43:48;9.40;1.00
34460;DHT22;20704;51.260;22.558;2024-02-21T12:45:50;9.30;1.00
34460;DHT22;20704;51.260;22.558;2024-02-21T12:47:53;9.20;1.00
34460;DHT22;20704;51.260;22.558;2024-02-21T12:51:59;9.10;1.00
34460;DHT22;20704;51.260;22.558;2024-02-21T12:54:01;9.00;1.00
34460;DHT22;20704;51.260;22.558;2024-02-21T12:56:05;9.00;1.00
34460;DHT22;20704;51.260;22.558;2024-02-21T12:58:09;9.00;16.20
34460;DHT22;20704;51.260;22.558;2024-02-21T13:00:12;8.80;1.00
34460;DHT22;20704;51.260;22.558;2024-02-21T13:02:15;8.80;1.00
34460;DHT22;20704;51.260;22.558;2024-02-21T13:04:18;8.70;1.00
34460;DHT22;20704;51.260;22.558;2024-02-21T13:06:21;8.70;1.00
34460;DHT22;20704;51.260;22.558;2024-02-21T13:08:23;8.70;1.00
34460;DHT22;20704;51.260;22.558;2024-02-21T13:12:29;8.80;1.00
34460;DHT22;20704;51.260;22.558;2024-02-21T13:14:32;8.80;1.00
34460;DHT22;20704;51.260;22.558;2024-02-21T13:16:35;8.90;1.00
34460;DHT22;20704;51.260;22.558;2024-02-21T13:18:41;9.10;1.00
34460;DHT22;20704;51.260;22.558;2024-02-21T13:20:45;9.10;1.00
34460;DHT22;20704;51.260;22.558;2024-02-21T13:22:47;9.10;1.00
34460;DHT22;20704;51.260;22.558;2024-02-21T13:24:50;9.10;1.00
34460;DHT22;20704;51.260;22.558;2024-02-21T13:26:56;9.10;1.00
34460;DHT22;20704;51.260;22.558;2024-02-21T13:28:58;9.20;1.00
34460;DHT22;20704;51.260;22.558;2024-02-21T13:31:00;9.20;1.00
34460;DHT22;20704;51.260;22.558;2024-02-21T13:33:03;9.30;1.00
34460;DHT22;20704;51.260;22.558;2024-02-21T13:35:06;9.20;1.00
34460;DHT22;20704;51.260;22.558;2024-02-21T13:37:08;9.30;1.00